Terminal Aerodrome Forecast
Issued by NWS St Louis, MO

Home | Current Version | Previous Version | Text Only | Print | Product List | Glossary On
Versions: 1 2 3 4 5 6 7 8 9 10 11 12 13 14 15 16 17 18 19 20 21 22 23 24 25 26
000
FTUS43 KLSX 241200 AAA
TAFSTL
TAF AMD
KSTL 241256Z 2413/2518 VRB04KT P6SM BKN015
      TEMPO 2413/2415 BKN007
     FM241500 23006KT P6SM SCT030
     FM250000 17005KT P6SM SCT250
     FM250900 28005KT P6SM SCT250=

USA.gov is the U.S. government's official web portal to all federal, state and local government web resources and services.